Flight Track Log - Related Links

Times and Time Zones

All times are in EDT time to prevent confusion due to time zone crossing. See the FDX715 flight status page for this flight to view local times or setup timezone preferences in your user account.

Time Position Orientation Groundspeed Altitude Reporting Facility
EDT Latitude Longitude Course Direction KTS km/h feet Rate Location/Type
Sun 05:43:30 PM 35.0500 -89.9667 11° North 171 317 1.500  Level KMEM
Sun 05:45:01 PM 35.1500 -89.9500 North 267 494 6.100 2.891 Climbing KMEM
Sun 05:47:10 PM 35.3319 -89.9142 North 336 623 12.100 2.508 Climbing Memphis Center
Sun 05:48:10 PM 35.4403 -89.8881 11° North 365 676 14.000 2.100 Climbing Memphis Center
Sun 05:49:00 PM 35.6703 -89.8158 11° North  Level FlightAware Approximate
Sun 05:49:10 PM 35.5611 -89.8569 12° North 416 771 16.300  Level Memphis Center
Sun 05:50:10 PM 35.6842 -89.8228 13° North 437 810 19.000 2.450 Climbing Memphis Center
Sun 05:51:10 PM 35.8072 -89.8247 359° North 444 822 21.200 1.950 Climbing Memphis Center
Sun 05:52:10 PM 35.9408 -89.8569 349° North 460 851 22.900 1.300 Climbing Memphis Center
Sun 05:53:10 PM 36.0722 -89.8819 351° North 475 880 23.800 1.450 Climbing Memphis Center
Sun 05:54:10 PM 36.2078 -89.9119 350° North 480 888 25.800 2.450 Climbing Memphis Center
Sun 05:55:10 PM 36.3414 -89.9397 350° North 487 901 28.700 2.700 Climbing Memphis Center
Sun 05:56:10 PM 36.4728 -89.9700 350° North 487 901 31.200 2.400 Climbing Memphis Center
Sun 05:57:10 PM 36.6022 -89.9975 350° North 482 893 33.500 1.400 Climbing Memphis Center
Sun 05:58:10 PM 36.7314 -90.0231 351° North 477 884 34.000 250 Climbing Memphis Center
Sun 05:59:10 PM 36.8606 -90.0508 350° North 472 874 34.000  Level Memphis Center
Sun 06:01:06 PM 37.0967 -90.0961 351° North 468 867 34.000  Level Kansas City Center
Sun 06:02:07 PM 37.2261 -90.1222 351° North 468 867 34.000  Level Kansas City Center
Sun 06:03:07 PM 37.3558 -90.1492 351° North 470 871 34.000  Level Kansas City Center
Sun 06:04:12 PM 37.4847 -90.1783 350° North 472 874 34.000  Level Kansas City Center
Sun 06:05:14 PM 37.6128 -90.2072 350° North 470 871 34.000  Level Kansas City Center
Sun 06:06:14 PM 37.7669 -90.2411 350° North 469 869 34.000  Level Kansas City Center
Sun 06:11:47 PM 38.4840 -90.3980 350° North 467 864 34.000  Level FlightAware ADS-B
Sun 06:12:37 PM 38.5920 -90.4220 350° North 466 863 34.000  Level FlightAware ADS-B
Sun 06:13:17 PM 38.6760 -90.4410 350° North 466 863 34.000  Level FlightAware ADS-B
Sun 06:14:02 PM 38.7650 -90.4610 350° North 466 863 34.000  Level FlightAware ADS-B
Sun 06:14:37 PM 38.8350 -90.4770 350° North 466 863 34.000  Level FlightAware ADS-B
Sun 06:15:22 PM 38.9330 -90.5190 342° North 465 861 34.000  Level FlightAware ADS-B
Sun 06:16:07 PM 39.0300 -90.5650 340° North 465 861 34.000  Level FlightAware ADS-B
Sun 06:16:47 PM 39.1070 -90.6020 340° North 466 863 34.000  Level FlightAware ADS-B
Sun 06:17:22 PM 39.1700 -90.6340 339° North 466 863 34.000  Level FlightAware ADS-B
Sun 06:18:12 PM 39.2760 -90.6860 339° North 467 864 34.000  Level FlightAware ADS-B
Sun 06:18:52 PM 39.3520 -90.7260 338° Northwest 467 864 34.000  Level FlightAware ADS-B
Sun 06:19:32 PM 39.4390 -90.7680 340° North 467 864 34.000  Level FlightAware ADS-B
Sun 06:20:17 PM 39.5320 -90.8150 339° North 465 861 34.000  Level FlightAware ADS-B
Sun 06:20:57 PM 39.6110 -90.8530 340° North 463 858 34.000 -71 Level FlightAware ADS-B
Sun 06:21:42 PM 39.6990 -90.8980 339° North 461 855 33.900 -71 Descending FlightAware ADS-B
Sun 06:22:22 PM 39.7760 -90.9360 339° North 460 851 33.900 71 Level FlightAware ADS-B
Sun 06:23:07 PM 39.8720 -90.9840 339° North 460 851 34.000 71 Climbing FlightAware ADS-B
Sun 06:23:47 PM 39.9500 -91.0230 339° North 461 855 34.000  Level FlightAware ADS-B
Sun 06:24:22 PM 40.0210 -91.0600 338° Northwest 462 856 34.000  Level FlightAware ADS-B
Sun 06:25:12 PM 40.1170 -91.1090 339° North 464 859 34.000  Level FlightAware ADS-B
Sun 06:25:52 PM 40.2030 -91.1530 339° North 466 863 34.000  Level FlightAware ADS-B
Sun 06:26:47 PM 40.3090 -91.2060 339° North 468 867 34.000  Level FlightAware ADS-B
Sun 06:27:47 PM 40.4330 -91.2690 339° North 467 864 34.000  Level FlightAware ADS-B
Sun 06:28:22 PM 40.5010 -91.3040 339° North 464 859 34.000 -75 Level FlightAware ADS-B
Sun 06:29:07 PM 40.5950 -91.3520 339° North 461 855 33.900  Descending FlightAware ADS-B
Sun 06:29:52 PM 40.6820 -91.3970 339° North 458 848 34.000  Climbing FlightAware ADS-B
Sun 06:30:32 PM 40.7610 -91.4380 339° North 457 847 33.900 -75 Descending FlightAware ADS-B
Sun 06:31:12 PM 40.8340 -91.4760 339° North 459 850 33.900  Level FlightAware ADS-B
Sun 06:31:57 PM 40.9160 -91.5200 338° Northwest 459 850 33.900 71 Level FlightAware ADS-B
Sun 06:32:37 PM 41.0100 -91.5690 339° North 463 858 34.000 71 Climbing FlightAware ADS-B
Sun 06:33:22 PM 41.0970 -91.6140 339° North 463 858 34.000  Level FlightAware ADS-B
Sun 06:34:02 PM 41.1790 -91.6570 338° Northwest 464 859 34.000  Level FlightAware ADS-B
Sun 06:34:42 PM 41.2580 -91.6990 338° Northwest 464 859 34.000  Level FlightAware ADS-B
Sun 06:35:22 PM 41.3380 -91.7420 338° Northwest 465 861 34.000  Level FlightAware ADS-B
Sun 06:36:07 PM 41.4290 -91.7890 339° North 466 863 34.000  Level FlightAware ADS-B
Sun 06:36:52 PM 41.5160 -91.8350 338° Northwest 465 861 34.000  Level FlightAware ADS-B
Sun 06:37:32 PM 41.5980 -91.8780 339° North 464 859 34.000  Level FlightAware ADS-B
Sun 06:38:17 PM 41.6870 -91.9250 338° Northwest 464 859 34.000  Level FlightAware ADS-B
Sun 06:38:57 PM 41.7700 -91.9710 338° Northwest 465 861 34.000  Level FlightAware ADS-B
Sun 06:39:37 PM 41.8460 -92.0120 338° Northwest 464 859 34.000  Level FlightAware ADS-B
Sun 06:40:17 PM 41.9230 -92.0540 338° Northwest 456 845 34.000  Level FlightAware ADS-B
Sun 06:41:02 PM 42.0150 -92.1030 338° Northwest 454 840 34.000 -424 Level FlightAware ADS-B
Sun 06:41:42 PM 42.0940 -92.1460 338° Northwest 454 840 33.400 -776 Descending FlightAware ADS-B
Sun 06:42:27 PM 42.1870 -92.1960 338° Northwest 465 861 32.900 -776 Descending FlightAware ADS-B
Sun 06:43:07 PM 42.2680 -92.2400 338° Northwest 467 864 32.300 -675 Descending FlightAware ADS-B
Sun 06:43:47 PM 42.3500 -92.2850 338° Northwest 466 863 32.000 -212 Descending FlightAware ADS-B
Sun 06:44:32 PM 42.4410 -92.3350 338° Northwest 471 872 32.000  Level FlightAware ADS-B
Sun 06:45:12 PM 42.5160 -92.3760 338° Northwest 457 847 32.000  Level FlightAware ADS-B
Sun 06:45:47 PM 42.5800 -92.4210 333° Northwest 417 772 32.000  Level FlightAware ADS-B
Sun 06:46:37 PM 42.6610 -92.4950 326° Northwest 402 745 32.000  Level FlightAware ADS-B
Sun 06:47:07 PM 42.7060 -92.5340 328° Northwest 403 747 32.000  Level FlightAware ADS-B
Sun 06:47:47 PM 42.7640 -92.5880 326° Northwest 390 723 32.000  Level FlightAware ADS-B
Sun 06:48:32 PM 42.8330 -92.6520 326° Northwest 391 724 32.000  Level FlightAware ADS-B
Sun 06:49:12 PM 42.8970 -92.7120 326° Northwest 394 729 32.000 -200 Level FlightAware ADS-B
Sun 06:50:02 PM 42.9690 -92.7790 326° Northwest 391 724 31.700 -655 Descending FlightAware ADS-B
Sun 06:51:02 PM 43.0580 -92.8610 326° Northwest 386 715 30.800 -884 Descending FlightAware ADS-B
Sun 06:51:37 PM 43.1080 -92.9070 326° Northwest 383 710 30.300 -480 Descending FlightAware ADS-B
Sun 06:52:42 PM 43.1980 -92.9930 325° Northwest 379 702 30.000 -171 Descending FlightAware ADS-B
Sun 06:53:22 PM 43.2470 -93.0400 325° Northwest 379 702 30.000  Level FlightAware ADS-B
Sun 06:54:02 PM 43.2960 -93.0870 325° Northwest 379 702 30.000  Level FlightAware ADS-B
Sun 06:54:42 PM 43.3450 -93.1340 325° Northwest 379 702 30.000  Level FlightAware ADS-B
Sun 06:55:32 PM 43.4060 -93.1930 325° Northwest 379 702 30.000  Level FlightAware ADS-B
Sun 06:56:12 PM 43.4550 -93.2400 325° Northwest 379 702 30.000  Level FlightAware ADS-B
Sun 06:56:52 PM 43.5040 -93.2870 325° Northwest 379 702 30.000  Level FlightAware ADS-B
Sun 06:57:32 PM 43.5530 -93.3340 325° Northwest 379 702 30.000  Level FlightAware ADS-B
Sun 06:58:12 PM 43.6010 -93.3820 324° Northwest 379 702 30.000  Level FlightAware ADS-B
Sun 06:59:02 PM 43.6620 -93.4410 325° Northwest 379 702 30.000  Level FlightAware ADS-B
Sun 06:59:42 PM 43.7110 -93.4880 325° Northwest 379 702 30.000  Level FlightAware ADS-B
Sun 07:00:22 PM 43.7600 -93.5350 325° Northwest 379 702 30.000  Level FlightAware ADS-B
Sun 07:01:02 PM 43.8090 -93.5830 325° Northwest 379 702 30.000  Level FlightAware ADS-B
Sun 07:01:42 PM 43.8580 -93.6300 325° Northwest 379 702 30.000 -4.839 Level FlightAware ADS-B
Sun 07:02:04 PM 44.0600 -93.0569 325° Northwest 408 756 25.000 -7.317 Descending FAA TRACON SMA TRACON (SMA)
Sun 07:02:23 PM 44.0394 -93.0247 132° Southeast 390 723 25.000  Level FAA TRACON SMA TRACON (SMA)
Sun 07:02:45 PM 44.0136 -93.0014 147° Southeast 367 679 25.000 -571 Level FAA TRACON SMA TRACON (SMA)
Sun 07:03:05 PM 43.9778 -92.9897 167° South 344 637 24.600 -1.077 Descending FAA TRACON SMA TRACON (SMA)
Sun 07:03:24 PM 43.9497 -92.9886 178° South 333 616 24.300 -923 Descending FAA TRACON SMA TRACON (SMA)
Sun 07:03:44 PM 43.9208 -92.9878 179° South 333 616 24.000 -450 Descending FAA TRACON SMA TRACON (SMA)
Sun 07:04:04 PM 43.9067 -92.9886 182° South 334 618 24.000  Level FAA TRACON SMA TRACON (SMA)
Sun 07:04:20 PM 43.8706 -92.9925 184° South 338 626 24.000 -857 Level Minneapolis Center
Sun 07:05:21 PM 43.7697 -92.9903 179° South 334 618 22.900 -933 Descending Minneapolis Center
Sun 07:06:35 PM 43.6814 -92.9869 178° South 326 604 21.900 -964 Descending Minneapolis Center
Sun 07:07:38 PM 43.5964 -93.0386 204° Southwest 309 573 20.700 -1.306 Descending Minneapolis Center
Sun 07:08:39 PM 43.6106 -93.1636 279° West 298 552 19.200 -1.415 Descending Minneapolis Center
Sun 07:09:41 PM 43.6986 -93.1978 344° North 331 613 17.800 -1.694 Descending Minneapolis Center
Sun 07:10:43 PM 43.7928 -93.2144 353° North 340 629 15.700 -1.790 Descending Minneapolis Center
Sun 07:11:45 PM 43.8872 -93.2322 352° North 342 634 14.100 -1.725 Descending Minneapolis Center
Sun 07:12:03 PM 43.9211 -93.2369 354° North 366 678 13.400 -2.368 Descending FAA TRACON SMA TRACON (SMA)
Sun 07:12:23 PM 43.9628 -93.2428 354° North 385 713 12.600 -2.049 Descending FAA TRACON SMA TRACON (SMA)
Sun 07:12:44 PM 43.9969 -93.2425 360° North 395 732 12.000 -1.756 Descending FAA TRACON SMA TRACON (SMA)
Sun 07:13:04 PM 44.0308 -93.2381 North 398 737 11.400 -1.950 Descending FAA TRACON SMA TRACON (SMA)
Sun 07:13:24 PM 44.0731 -93.2342 North 395 732 10.700 -1.650 Descending FAA TRACON SMA TRACON (SMA)
Sun 07:13:44 PM 44.1061 -93.2325 North 390 723 10.300 -1.050 Descending FAA TRACON SMA TRACON (SMA)
Sun 07:14:04 PM 44.1389 -93.2292 North 384 711 10.000 -600 Descending FAA TRACON SMA TRACON (SMA)
Sun 07:14:24 PM 44.1789 -93.2250 North 375 695 9.900 -100 Descending FAA TRACON SMA TRACON (SMA)
Sun 07:15:04 PM 44.2425 -93.2197 North 373 690 9.900  Level FAA TRACON SMA TRACON (SMA)
Sun 07:15:24 PM 44.2814 -93.2164 North 365 676 9.900  Level FAA TRACON SMA TRACON (SMA)
Sun 07:15:44 PM 44.3128 -93.2122 North 363 673 9.900  Level FAA TRACON SMA TRACON (SMA)
Sun 07:16:03 PM 44.3436 -93.2094 North 362 671 9.900  Level FAA TRACON SMA TRACON (SMA)
Sun 07:16:23 PM 44.3819 -93.2058 North 358 663 9.900  Level FAA TRACON SMA TRACON (SMA)
Sun 07:16:43 PM 44.4106 -93.2031 North 342 634 9.900  Level FAA TRACON SMA TRACON (SMA)
Sun 07:17:03 PM 44.4381 -93.2006 North 325 602 9.900  Level FAA TRACON SMA TRACON (SMA)
Sun 07:17:23 PM 44.4722 -93.1967 North 318 589 9.900  Level FAA TRACON SMA TRACON (SMA)
Sun 07:18:03 PM 44.5261 -93.1917 North 314 581 9.900 -590 Level FAA TRACON SMA TRACON (SMA)
Sun 07:18:24 PM 44.5594 -93.1881 North 312 578 9.300 -1.350 Descending FAA TRACON SMA TRACON (SMA)
Sun 07:18:43 PM 44.5864 -93.1856 North 313 579 9.000 -1.050 Descending FAA TRACON SMA TRACON (SMA)
Sun 07:19:04 PM 44.6131 -93.1839 North 311 576 8.600 -1.463 Descending FAA TRACON SMA TRACON (SMA)
Sun 07:19:24 PM 44.6447 -93.1908 351° North 304 563 8.000 -1.050 Descending FAA TRACON SMA TRACON (SMA)
Sun 07:19:44 PM 44.6664 -93.2056 334° Northwest 289 536 7.900 -150 Descending FAA TRACON SMA TRACON (SMA)
Sun 07:20:04 PM 44.6875 -93.2194 335° Northwest 273 505 7.900  Level FAA TRACON SMA TRACON (SMA)
Sun 07:20:24 PM 44.7125 -93.2331 339° North 252 467 7.900  Level FAA TRACON SMA TRACON (SMA)
Sun 07:20:44 PM 44.7317 -93.2447 337° Northwest 246 455 7.900  Level FAA TRACON SMA TRACON (SMA)
Sun 07:21:04 PM 44.7508 -93.2572 335° Northwest 244 452 7.900  Level FAA TRACON SMA TRACON (SMA)
Sun 07:21:24 PM 44.7747 -93.2731 335° Northwest 246 455 7.900  Level FAA TRACON SMA TRACON (SMA)
Sun 07:21:44 PM 44.7936 -93.2858 334° Northwest 245 454 7.900  Level FAA TRACON SMA TRACON (SMA)
Sun 07:22:04 PM 44.8119 -93.2994 332° Northwest 245 454 7.900  Level FAA TRACON SMA TRACON (SMA)
Sun 07:22:24 PM 44.8269 -93.3253 309° West 224 415 7.900  Level FAA TRACON SMA TRACON (SMA)
Sun 07:22:44 PM 44.8378 -93.3467 306° West 217 402 7.900  Level FAA TRACON SMA TRACON (SMA)
Sun 07:23:03 PM 44.8481 -93.3681 304° West 214 396 7.900  Level FAA TRACON SMA TRACON (SMA)
Sun 07:23:23 PM 44.8583 -93.3897 304° West 214 396 7.900  Level FAA TRACON SMA TRACON (SMA)
Sun 07:23:43 PM 44.8708 -93.4161 304° West 212 393 7.900  Level FAA TRACON SMA TRACON (SMA)
Sun 07:24:03 PM 44.8811 -93.4381 303° West 215 398 7.900  Level FAA TRACON SMA TRACON (SMA)
Sun 07:24:24 PM 44.8908 -93.4592 303° West 212 393 7.900  Level FAA TRACON SMA TRACON (SMA)
Sun 07:24:44 PM 44.9033 -93.4867 303° West 213 394 7.900  Level FAA TRACON SMA TRACON (SMA)
Sun 07:25:04 PM 44.9128 -93.5075 303° West 209 388 7.900  Level FAA TRACON SMA TRACON (SMA)
Sun 07:25:24 PM 44.9225 -93.5286 303° West 207 383 7.900  Level FAA TRACON SMA TRACON (SMA)
Sun 07:25:44 PM 44.9353 -93.5550 304° West 209 388 7.900  Level FAA TRACON SMA TRACON (SMA)
Sun 07:26:04 PM 44.9447 -93.5753 303° West 206 381 7.900 -150 Level FAA TRACON SMA TRACON (SMA)
Sun 07:26:24 PM 44.9544 -93.5939 306° West 193 357 7.800 -923 Descending FAA TRACON SMA TRACON (SMA)
Sun 07:26:43 PM 44.9658 -93.6172 305° West 187 346 7.300 -980 Descending FAA TRACON SMA TRACON (SMA)
Sun 07:32:07 PM 44.9240 -93.3170 305° West 152 282 2.200 -948 Descending FlightAware ADS-B
Sun 07:32:12 PM 44.9220 -93.3130 125° Southeast 152 282 2.100 -900 Descending FlightAware ADS-B
Sun 07:32:47 PM 44.9080 -93.2810 122° Southeast 144 267 1.600 -831 Descending FlightAware ADS-B
Sun 07:33:17 PM 44.8980 -93.2580 122° Southeast 144 267 1.200 -800 Descending FlightAware ADS-B
Sun 07:33:47 PM 44.8880 -93.2340 120° Southeast 146 270 800 -800 Descending FlightAware ADS-B

Login

Don't have an account? Register now (free) for customized features, flight alerts, and more!